Time;durP1;ratioP1;P1;durP2;ratioP2;P2;SDS_P1;SDS_P2;PMS_P1;PMS_P2;Temp;Humidity;BMP_temperature;BMP_pressure;BME280_temperature;BME280_humidity;BME280_pressure;Samples;Min_cycle;Max_cycle;Signal;HPM_P1;HPM_P2
2022/01/19 00:00:27;;;;;;;169.77;129.88;;;5.70;99.90;;;;;;5021835;28;20053;-81
2022/01/19 00:02:54;;;;;;;171.25;134.23;;;5.70;99.90;;;;;;5019397;28;20135;-81
2022/01/19 00:05:49;;;;;;;168.00;129.43;;;5.70;99.90;;;;;;5035976;28;20053;-82
2022/01/19 00:08:19;;;;;;;165.65;130.32;;;5.70;99.90;;;;;;5032583;28;20038;-81
2022/01/19 00:10:47;;;;;;;171.73;130.52;;;5.70;99.90;;;;;;4999443;28;20050;-82
2022/01/19 00:13:15;;;;;;;174.15;127.70;;;5.70;99.90;;;;;;4999616;28;20049;-82
2022/01/19 00:15:44;;;;;;;175.02;130.40;;;5.80;99.90;;;;;;5015442;28;20506;-82
2022/01/19 00:18:11;;;;;;;163.68;127.63;;;5.80;99.90;;;;;;5018585;28;20551;-82
2022/01/19 00:20:38;;;;;;;163.40;127.82;;;5.70;99.90;;;;;;5018874;28;20056;-81
2022/01/19 00:23:05;;;;;;;;;;;5.80;99.90;;;;;;5006680;28;20055;-82
2022/01/19 00:25:34;;;;;;;160.35;126.22;;;5.80;99.90;;;;;;4999038;28;20425;-82
2022/01/19 00:28:01;;;;;;;171.25;129.93;;;5.80;99.90;;;;;;5002544;28;20050;-82
2022/01/19 00:30:28;;;;;;;163.65;126.18;;;5.80;99.90;;;;;;5008697;28;20116;-82
2022/01/19 00:32:57;;;;;;;171.50;124.75;;;5.80;99.90;;;;;;5018329;28;20050;-81
2022/01/19 00:35:25;;;;;;;163.57;124.50;;;5.80;99.90;;;;;;5035888;28;20056;-81
2022/01/19 00:37:53;;;;;;;154.63;122.90;;;5.80;99.90;;;;;;5015086;28;20049;-82
2022/01/19 00:40:20;;;;;;;;;;;5.80;99.90;;;;;;5003040;28;20149;-82
2022/01/19 00:42:49;;;;;;;153.93;119.32;;;5.80;99.90;;;;;;5027475;28;19925;-82
2022/01/19 00:45:17;;;;;;;155.52;122.30;;;5.80;99.90;;;;;;5016823;28;20089;-81
2022/01/19 00:47:44;;;;;;;156.13;122.85;;;5.80;99.90;;;;;;5000136;28;20047;-81
2022/01/19 00:50:15;;;;;;;153.95;121.28;;;5.80;99.90;;;;;;5003685;28;20108;-82
2022/01/19 00:52:43;;;;;;;161.07;123.53;;;5.80;99.90;;;;;;5010626;28;20059;-81
2022/01/19 00:55:12;;;;;;;148.38;120.82;;;5.80;99.90;;;;;;5003562;28;20084;-82
2022/01/19 00:57:39;;;;;;;160.02;121.95;;;5.80;99.90;;;;;;5023907;28;20050;-82
2022/01/19 01:00:09;;;;;;;161.18;123.00;;;5.80;99.90;;;;;;5020172;28;20050;-82
2022/01/19 01:02:36;;;;;;;161.07;123.18;;;5.80;99.90;;;;;;5016757;28;20057;-82
2022/01/19 01:05:04;;;;;;;161.13;124.07;;;5.80;99.90;;;;;;5027659;28;20954;-81
2022/01/19 01:07:35;;;;;;;158.38;122.68;;;5.80;99.90;;;;;;5010760;28;20050;-82
2022/01/19 01:10:02;;;;;;;164.85;126.18;;;5.80;99.90;;;;;;5021372;28;20050;-82
2022/01/19 01:12:42;;;;;;;;;;;5.80;99.90;;;;;;5002652;28;20081;-82
2022/01/19 01:15:29;;;;;;;170.77;122.95;;;5.80;99.90;;;;;;5019015;28;20027;-82
2022/01/19 01:20:43;;;;;;;167.80;124.75;;;5.80;99.90;;;;;;4989516;28;20049;-82
2022/01/19 01:23:11;;;;;;;161.07;121.80;;;5.80;99.90;;;;;;5013307;28;20077;-82
2022/01/19 01:25:39;;;;;;;161.63;124.20;;;5.80;99.90;;;;;;5010497;28;20050;-82
2022/01/19 01:28:07;;;;;;;161.77;123.95;;;5.80;99.90;;;;;;5018206;28;20526;-82
2022/01/19 01:30:35;;;;;;;163.27;123.18;;;5.70;99.90;;;;;;5011964;28;20065;-82
2022/01/19 01:33:03;;;;;;;164.98;123.88;;;5.70;99.90;;;;;;5021669;28;20099;-82
2022/01/19 01:35:31;;;;;;;162.57;124.00;;;5.70;99.90;;;;;;5021384;28;20081;-82
2022/01/19 01:37:58;;;;;;;155.93;125.22;;;5.70;99.90;;;;;;5013532;28;20054;-82
2022/01/19 01:40:27;;;;;;;160.52;123.25;;;5.70;99.90;;;;;;5021169;28;20519;-82
2022/01/19 01:42:56;;;;;;;166.95;125.10;;;5.70;99.90;;;;;;5005713;28;20119;-82
2022/01/19 01:45:28;;;;;;;154.60;123.15;;;5.70;99.90;;;;;;5013309;28;20054;-82
2022/01/19 01:48:04;;;;;;;157.23;124.68;;;5.70;99.90;;;;;;5022763;28;20050;-82
2022/01/19 01:53:29;;;;;;;159.70;126.33;;;5.70;99.90;;;;;;4972257;28;20487;-82
2022/01/19 01:56:01;;;;;;;157.70;124.88;;;5.70;99.90;;;;;;5003897;28;20259;-82
2022/01/19 01:58:29;;;;;;;159.80;125.32;;;5.60;99.90;;;;;;5001430;28;20463;-81
2022/01/19 02:01:19;;;;;;;150.98;120.85;;;5.60;99.90;;;;;;5022086;28;20136;-82
2022/01/19 02:03:47;;;;;;;165.00;123.40;;;5.60;99.90;;;;;;5009885;28;20811;-82
2022/01/19 02:06:31;;;;;;;155.88;123.35;;;5.50;99.90;;;;;;5001435;28;20054;-81
2022/01/19 02:09:23;;;;;;;156.10;120.90;;;5.50;99.90;;;;;;4993232;28;20083;-82
2022/01/19 02:23:08;;;;;;;160.98;126.68;;;5.40;99.90;;;;;;4997801;28;20054;-82
2022/01/19 02:25:41;;;;;;;160.48;125.15;;;5.40;99.90;;;;;;4999694;28;20046;-82
2022/01/19 02:36:49;;;;;;;164.82;125.60;;;5.30;99.90;;;;;;5000816;28;20046;-82
2022/01/19 02:42:02;;;;;;;165.00;126.28;;;5.30;99.90;;;;;;5019873;28;20546;-82
2022/01/19 02:49:59;;;;;;;151.35;122.43;;;5.20;99.90;;;;;;5022818;28;20050;-82
2022/01/19 02:52:27;;;;;;;160.15;126.45;;;5.10;99.90;;;;;;4997343;28;20077;-82
2022/01/19 02:54:54;;;;;;;154.93;123.30;;;5.10;99.90;;;;;;5018832;28;20057;-81
2022/01/19 02:57:25;;;;;;;161.75;128.98;;;5.10;99.90;;;;;;5020034;28;20495;-82
2022/01/19 03:06:28;;;;;;;158.50;126.43;;;5.10;99.90;;;;;;5008729;28;20145;-82
2022/01/19 03:11:05;;;;;;;165.50;127.23;;;5.10;99.90;;;;;;5014796;28;20054;-81
2022/01/19 03:13:32;;;;;;;159.77;127.03;;;5.10;99.90;;;;;;5016709;28;20061;-81
2022/01/19 03:15:59;;;;;;;154.02;125.30;;;5.10;99.90;;;;;;5006160;28;20058;-82
2022/01/19 03:18:26;;;;;;;155.98;125.43;;;5.10;99.90;;;;;;5008435;28;20132;-81
2022/01/19 03:20:53;;;;;;;168.40;131.05;;;5.10;99.90;;;;;;5001933;28;20133;-82
2022/01/19 03:23:22;;;;;;;161.48;127.07;;;5.10;99.90;;;;;;4996420;28;20053;-81
2022/01/19 03:25:50;;;;;;;167.52;130.63;;;5.10;99.90;;;;;;5019226;28;20054;-81
2022/01/19 03:28:19;;;;;;;154.75;126.32;;;5.00;99.90;;;;;;5018500;28;20053;-81
2022/01/19 03:30:48;;;;;;;166.20;128.65;;;5.00;99.90;;;;;;5000526;28;20494;-82
2022/01/19 03:33:16;;;;;;;150.05;127.22;;;5.00;99.90;;;;;;5015309;28;20053;-82
2022/01/19 03:35:43;;;;;;;157.10;127.82;;;5.00;99.90;;;;;;5000454;28;20058;-81
2022/01/19 03:38:12;;;;;;;159.05;128.75;;;4.90;99.90;;;;;;5011437;28;20053;-81
2022/01/19 03:40:41;;;;;;;153.65;126.93;;;4.90;99.90;;;;;;5003879;28;20056;-81
2022/01/19 03:43:09;;;;;;;145.55;122.60;;;4.90;99.90;;;;;;5015826;28;20061;-81
2022/01/19 03:45:53;;;;;;;157.68;125.60;;;4.90;99.90;;;;;;4999886;28;20528;-81
2022/01/19 03:48:35;;;;;;;159.32;127.50;;;4.80;99.90;;;;;;5012483;28;20056;-81
2022/01/19 03:51:02;;;;;;;158.85;128.02;;;4.80;99.90;;;;;;5015236;28;20135;-82
2022/01/19 03:53:30;;;;;;;160.40;126.65;;;4.80;99.90;;;;;;5005257;28;20049;-82
2022/01/19 03:55:59;;;;;;;158.15;125.97;;;4.80;99.90;;;;;;5015747;28;20065;-82
2022/01/19 03:58:26;;;;;;;159.02;125.90;;;4.80;99.90;;;;;;5005088;28;20046;-81
2022/01/19 04:00:56;;;;;;;165.35;128.18;;;4.80;99.90;;;;;;4999579;28;20050;-81
2022/01/19 04:03:32;;;;;;;168.95;128.70;;;4.80;99.90;;;;;;4988798;28;20089;-81
2022/01/19 04:06:04;;;;;;;161.18;128.18;;;4.80;99.90;;;;;;5012952;28;20586;-81
2022/01/19 04:08:31;;;;;;;154.68;125.68;;;4.80;99.90;;;;;;4993471;28;20045;-82
2022/01/19 04:11:00;;;;;;;153.45;125.03;;;4.80;99.90;;;;;;5017967;28;20049;-81
2022/01/19 04:13:43;;;;;;;147.73;123.57;;;4.80;99.90;;;;;;5019353;28;20061;-81
2022/01/19 04:16:10;;;;;;;151.00;124.65;;;4.80;99.90;;;;;;5035457;28;20075;-81
2022/01/19 04:18:37;;;;;;;151.07;125.72;;;4.80;99.90;;;;;;5003621;28;20053;-81
2022/01/19 04:21:07;;;;;;;149.90;124.63;;;4.80;99.90;;;;;;5013664;28;20128;-82
2022/01/19 04:23:34;;;;;;;146.05;124.57;;;4.80;99.90;;;;;;4999434;28;20081;-81
2022/01/19 04:26:03;;;;;;;156.05;126.68;;;4.80;99.90;;;;;;4995822;28;20468;-81
2022/01/19 04:28:31;;;;;;;150.45;127.70;;;4.80;99.90;;;;;;4990185;28;20043;-81
2022/01/19 04:30:58;;;;;;;152.20;125.80;;;4.80;99.90;;;;;;5013151;28;20049;-81
2022/01/19 04:33:27;;;;;;;145.23;124.20;;;4.70;99.90;;;;;;4999404;28;20050;-81
2022/01/19 04:36:07;;;;;;;146.98;125.13;;;4.70;99.90;;;;;;5007767;28;20068;-81
2022/01/19 04:44:34;;;;;;;147.73;124.57;;;4.70;99.90;;;;;;5023044;28;20687;-81
2022/01/19 05:04:05;;;;;;;144.32;123.07;;;4.60;99.90;;;;;;4998942;28;20130;-82
2022/01/19 05:06:41;;;;;;;147.35;124.20;;;4.50;99.90;;;;;;4995623;28;20134;-81
2022/01/19 05:09:22;;;;;;;143.77;123.15;;;4.50;99.90;;;;;;5029945;28;20049;-82
2022/01/19 05:14:35;;;;;;;143.63;123.97;;;4.50;99.90;;;;;;5018923;28;20091;-81
2022/01/19 05:17:02;;;;;;;138.27;122.75;;;4.50;99.90;;;;;;5001097;28;20056;-81
2022/01/19 05:19:30;;;;;;;144.93;126.22;;;4.50;99.90;;;;;;4989260;28;20057;-81
2022/01/19 05:21:57;;;;;;;141.63;126.15;;;4.50;99.90;;;;;;5021455;28;20089;-81
2022/01/19 05:24:43;;;;;;;147.00;125.03;;;4.50;99.90;;;;;;5028473;28;20084;-81
2022/01/19 05:27:16;;;;;;;144.43;124.28;;;4.50;99.90;;;;;;5003945;28;20050;-81
2022/01/19 05:29:45;;;;;;;141.93;122.72;;;4.50;99.90;;;;;;5001786;28;20050;-81
2022/01/19 05:32:12;;;;;;;146.88;123.63;;;4.50;99.90;;;;;;5001857;28;20054;-81
2022/01/19 05:34:40;;;;;;;143.07;125.95;;;4.50;99.90;;;;;;4998523;28;20052;-81
2022/01/19 05:37:36;;;;;;;143.23;125.70;;;4.50;99.90;;;;;;4985418;28;20528;-81
2022/01/19 05:40:21;;;;;;;148.30;124.00;;;4.50;99.90;;;;;;5043972;28;20053;-81
2022/01/19 05:42:54;;;;;;;144.77;125.07;;;4.50;99.90;;;;;;5012184;28;20061;-81
2022/01/19 05:45:24;;;;;;;147.25;126.72;;;4.50;99.90;;;;;;5003870;28;20050;-81
2022/01/19 05:47:53;;;;;;;145.05;127.60;;;4.50;99.90;;;;;;5001725;28;20141;-81
2022/01/19 05:50:20;;;;;;;148.27;126.00;;;4.50;99.90;;;;;;5000979;28;20133;-81
2022/01/19 05:52:56;;;;;;;146.23;126.18;;;4.50;99.90;;;;;;5001348;28;20515;-81
2022/01/19 05:55:23;;;;;;;145.80;125.03;;;4.50;99.90;;;;;;5001555;28;20053;-81
2022/01/19 05:57:50;;;;;;;145.10;124.97;;;4.50;99.90;;;;;;5005476;28;20050;-80
2022/01/19 06:00:17;;;;;;;146.48;126.22;;;4.50;99.90;;;;;;5012946;28;20050;-81
2022/01/19 06:02:52;;;;;;;145.38;125.70;;;4.50;99.90;;;;;;5041402;28;20058;-81
2022/01/19 06:05:33;;;;;;;151.43;130.25;;;4.50;99.90;;;;;;4995030;28;20475;-81
2022/01/19 06:08:43;;;;;;;153.40;129.25;;;4.50;99.90;;;;;;5015890;28;20515;-81
2022/01/19 06:11:12;;;;;;;152.52;128.50;;;4.50;99.90;;;;;;5013122;28;20074;-81
2022/01/19 06:13:41;;;;;;;146.85;125.43;;;4.50;99.90;;;;;;5037358;28;20076;-81
2022/01/19 06:16:10;;;;;;;143.80;126.13;;;4.50;99.90;;;;;;5013588;28;20102;-81
2022/01/19 06:18:42;;;;;;;149.98;127.72;;;4.50;99.90;;;;;;5017094;28;20046;-81
2022/01/19 06:21:10;;;;;;;149.65;127.60;;;4.50;99.90;;;;;;5019933;28;20049;-81
2022/01/19 06:23:41;;;;;;;153.00;128.70;;;4.40;99.90;;;;;;5020697;28;20052;-81
2022/01/19 06:26:10;;;;;;;147.48;125.25;;;4.50;99.90;;;;;;5000149;28;20056;-81
2022/01/19 06:28:38;;;;;;;148.63;126.70;;;4.50;99.90;;;;;;5001080;28;20038;-81
2022/01/19 06:31:06;;;;;;;143.20;125.57;;;4.50;99.90;;;;;;5000805;28;20050;-81
2022/01/19 06:33:34;;;;;;;146.07;123.93;;;4.40;99.90;;;;;;5015005;28;20053;-81
2022/01/19 06:36:04;;;;;;;147.13;126.38;;;4.40;99.90;;;;;;5020295;28;20547;-81
2022/01/19 06:38:48;;;;;;;144.05;124.57;;;4.30;99.90;;;;;;5020136;28;20072;-81
2022/01/19 06:41:28;;;;;;;150.68;125.53;;;4.30;99.90;;;;;;5019658;28;20053;-81
2022/01/19 06:43:55;;;;;;;150.65;124.90;;;4.30;99.90;;;;;;5003862;28;20444;-81
2022/01/19 06:46:23;;;;;;;144.07;124.75;;;4.30;99.90;;;;;;5012949;28;20054;-81
2022/01/19 06:48:50;;;;;;;146.57;124.63;;;4.30;99.90;;;;;;5016167;28;20108;-81
2022/01/19 06:51:20;;;;;;;146.23;124.85;;;4.30;99.90;;;;;;5020133;28;20562;-81
2022/01/19 06:53:52;;;;;;;152.15;126.95;;;4.20;99.90;;;;;;5009049;28;20061;-81
2022/01/19 06:56:24;;;;;;;147.27;126.18;;;4.30;99.90;;;;;;5000468;28;20062;-81
2022/01/19 06:58:58;;;;;;;151.15;128.48;;;4.30;99.90;;;;;;4998472;28;20042;-80
2022/01/19 07:01:41;;;;;;;146.95;124.97;;;4.30;99.90;;;;;;5000599;28;20214;-81
2022/01/19 07:04:16;;;;;;;146.57;126.60;;;4.30;99.90;;;;;;5004057;28;20050;-81
2022/01/19 07:06:45;;;;;;;141.65;123.38;;;4.30;99.90;;;;;;5000096;28;20464;-80
2022/01/19 07:09:22;;;;;;;150.43;124.25;;;4.30;99.90;;;;;;5000621;28;20045;-81
2022/01/19 07:11:52;;;;;;;148.10;125.97;;;4.30;99.90;;;;;;5002312;28;20034;-81
2022/01/19 07:14:20;;;;;;;145.13;125.43;;;4.40;99.90;;;;;;5000166;28;20824;-81
2022/01/19 07:16:49;;;;;;;148.25;126.88;;;4.40;99.90;;;;;;5012213;28;20050;-81
2022/01/19 07:19:17;;;;;;;142.07;123.78;;;4.40;99.90;;;;;;4999864;28;20038;-80
2022/01/19 07:21:47;;;;;;;147.02;126.10;;;4.40;99.90;;;;;;5007742;28;20072;-81
2022/01/19 07:24:15;;;;;;;142.25;122.68;;;4.40;99.90;;;;;;5019759;28;20155;-81
2022/01/19 07:26:42;;;;;;;146.57;124.45;;;4.40;99.90;;;;;;5015973;28;20053;-81
2022/01/19 07:29:14;;;;;;;143.10;123.47;;;4.40;99.90;;;;;;5015592;28;20847;-81
2022/01/19 07:31:43;;;;;;;140.75;124.15;;;4.40;99.90;;;;;;4996014;28;20140;-82
2022/01/19 07:34:11;;;;;;;144.07;124.22;;;4.40;99.90;;;;;;4993867;28;20219;-81
2022/01/19 07:36:41;;;;;;;151.13;125.13;;;4.40;99.90;;;;;;4999144;28;20054;-80
2022/01/19 07:39:10;;;;;;;142.88;126.15;;;4.40;99.90;;;;;;4998663;28;20053;-80
2022/01/19 07:41:39;;;;;;;143.75;124.60;;;4.40;99.90;;;;;;5006009;28;20053;-81
2022/01/19 07:44:24;;;;;;;146.48;123.53;;;4.40;99.90;;;;;;5003752;28;20413;-81
2022/01/19 07:47:11;;;;;;;140.73;121.18;;;4.40;99.90;;;;;;5026802;28;20120;-80
2022/01/19 07:50:01;;;;;;;143.75;124.38;;;4.40;99.90;;;;;;4992416;28;20132;-81
2022/01/19 07:52:52;;;;;;;148.23;128.80;;;4.40;99.90;;;;;;5002817;28;20046;-82
2022/01/19 07:55:29;;;;;;;146.43;125.28;;;4.40;99.90;;;;;;5001710;28;20057;-82
2022/01/19 07:58:12;;;;;;;150.07;126.07;;;4.40;99.90;;;;;;4996950;28;20120;-81
2022/01/19 08:00:46;;;;;;;147.23;125.88;;;4.40;99.90;;;;;;5013060;28;20136;-80
2022/01/19 08:03:35;;;;;;;147.32;126.95;;;4.40;99.90;;;;;;4998808;28;20054;-82
2022/01/19 08:06:09;;;;;;;145.90;124.38;;;4.30;99.90;;;;;;5012140;28;20057;-82
2022/01/19 08:08:38;;;;;;;144.60;123.90;;;4.30;99.90;;;;;;4999377;28;20086;-82
2022/01/19 08:11:06;;;;;;;141.75;124.60;;;4.30;99.90;;;;;;5013976;28;20141;-82
2022/01/19 08:13:37;;;;;;;148.38;123.50;;;4.30;99.90;;;;;;5015637;28;20124;-80
2022/01/19 08:16:05;;;;;;;138.95;122.88;;;4.30;99.90;;;;;;4999102;28;20136;-79
2022/01/19 08:18:37;;;;;;;143.95;126.45;;;4.20;99.90;;;;;;5005089;28;20109;-80
2022/01/19 08:21:04;;;;;;;;;;;4.30;99.90;;;;;;5019107;28;20589;-81
2022/01/19 08:23:40;;;;;;;146.43;124.20;;;4.20;99.90;;;;;;5009805;28;20016;-78
2022/01/19 08:26:12;;;;;;;146.63;124.25;;;4.20;99.90;;;;;;4999371;28;20050;-79
2022/01/19 08:28:41;;;;;;;143.40;123.57;;;4.20;99.90;;;;;;5002827;28;20057;-79
2022/01/19 08:31:08;;;;;;;150.07;125.70;;;4.20;99.90;;;;;;5011921;28;20136;-80
2022/01/19 08:34:11;;;;;;;142.50;122.13;;;4.20;99.90;;;;;;4929346;28;20768;-79
2022/01/19 08:37:10;;;;;;;148.45;126.47;;;4.20;99.90;;;;;;5010785;28;20414;-81
2022/01/19 08:39:43;;;;;;;144.73;125.95;;;4.20;99.90;;;;;;4992486;28;20117;-83
2022/01/19 08:42:12;;;;;;;146.10;126.45;;;4.20;99.90;;;;;;5002683;28;20749;-83
2022/01/19 08:44:39;;;;;;;148.15;126.25;;;4.20;99.90;;;;;;5012029;28;20128;-82
2022/01/19 08:47:22;;;;;;;151.65;125.38;;;4.30;99.90;;;;;;5001590;28;20054;-83
2022/01/19 08:50:12;;;;;;;142.20;124.18;;;4.20;99.90;;;;;;5019726;28;20049;-84
2022/01/19 08:52:59;;;;;;;148.57;123.40;;;4.30;99.90;;;;;;5012780;28;20056;-83
2022/01/19 08:55:34;;;;;;;141.07;122.55;;;4.20;99.90;;;;;;5009633;28;20049;-83
2022/01/19 08:58:02;;;;;;;147.73;124.78;;;4.30;99.90;;;;;;5012102;28;20059;-83
2022/01/19 09:00:31;;;;;;;143.70;126.30;;;4.20;99.90;;;;;;5027124;28;20570;-82
2022/01/19 09:02:59;;;;;;;144.18;121.95;;;4.30;99.90;;;;;;4998600;28;20046;-82
2022/01/19 09:05:26;;;;;;;142.75;124.95;;;4.30;99.90;;;;;;5015013;28;20063;-82
2022/01/19 09:07:53;;;;;;;145.20;122.25;;;4.30;99.90;;;;;;5021240;28;20133;-82
2022/01/19 09:10:21;;;;;;;;;;;4.30;99.90;;;;;;5018916;28;20050;-82
2022/01/19 09:12:48;;;;;;;144.77;124.93;;;4.30;99.90;;;;;;5031228;28;19929;-82
2022/01/19 09:15:18;;;;;;;149.02;128.45;;;4.30;99.90;;;;;;5017541;28;20133;-82
2022/01/19 09:17:45;;;;;;;148.85;126.75;;;4.30;99.90;;;;;;5017631;28;20058;-82
2022/01/19 09:20:12;;;;;;;;;;;4.30;99.90;;;;;;5018146;28;20096;-82
2022/01/19 09:22:40;;;;;;;148.10;125.88;;;4.30;99.90;;;;;;5001613;28;20422;-82
2022/01/19 09:25:08;;;;;;;;;;;4.30;99.90;;;;;;5001471;28;20112;-81
2022/01/19 09:27:37;;;;;;;146.30;125.15;;;4.30;99.90;;;;;;5030313;28;20020;-82
2022/01/19 09:30:06;;;;;;;149.30;130.32;;;4.30;99.90;;;;;;5047637;28;20062;-82
2022/01/19 09:32:35;;;;;;;150.18;129.75;;;4.30;99.90;;;;;;5019547;28;20050;-83
2022/01/19 09:35:07;;;;;;;152.32;131.90;;;4.30;99.90;;;;;;5012862;28;20061;-80
2022/01/19 09:37:34;;;;;;;149.15;129.23;;;4.30;99.90;;;;;;5027767;28;20065;-79
2022/01/19 09:40:02;;;;;;;;;;;4.30;99.90;;;;;;5016119;28;20054;-80
2022/01/19 09:42:28;;;;;;;145.52;127.47;;;4.30;99.90;;;;;;5032781;28;19929;-79
2022/01/19 09:44:55;;;;;;;146.85;127.90;;;4.30;99.90;;;;;;5015856;28;20130;-80
2022/01/19 09:47:23;;;;;;;149.27;130.27;;;4.30;99.90;;;;;;5016072;28;20053;-80
2022/01/19 09:49:51;;;;;;;;;;;4.40;99.90;;;;;;5013825;28;20052;-80
2022/01/19 09:52:18;;;;;;;145.52;127.55;;;4.40;99.90;;;;;;5000499;28;19952;-79
2022/01/19 09:54:45;;;;;;;152.93;130.90;;;4.40;99.90;;;;;;5019416;28;20111;-79
2022/01/19 09:57:12;;;;;;;147.13;127.78;;;4.40;99.90;;;;;;5024020;28;20045;-80
2022/01/19 09:59:40;;;;;;;150.93;128.68;;;4.50;99.90;;;;;;5000848;28;20046;-78
2022/01/19 10:02:10;;;;;;;149.45;131.55;;;4.50;99.90;;;;;;5036969;28;20050;-80
2022/01/19 10:04:42;;;;;;;143.50;127.25;;;4.50;99.90;;;;;;4999193;28;20052;-80
2022/01/19 10:07:16;;;;;;;150.27;133.57;;;4.50;99.90;;;;;;5005412;28;20093;-80
2022/01/19 10:09:56;;;;;;;153.35;128.25;;;4.50;99.90;;;;;;5008586;28;20074;-80
2022/01/19 10:18:13;;;;;;;150.60;131.98;;;4.60;99.90;;;;;;4998591;28;20047;-79
2022/01/19 10:20:42;;;;;;;153.32;132.68;;;4.60;99.90;;;;;;5013966;28;20060;-79
2022/01/19 10:23:33;;;;;;;149.48;130.35;;;4.60;99.90;;;;;;5031187;28;20132;-79
2022/01/19 10:26:01;;;;;;;158.30;134.40;;;4.60;99.90;;;;;;5015255;28;20135;-79
2022/01/19 10:28:28;;;;;;;150.02;132.23;;;4.60;99.90;;;;;;5010884;28;20041;-78
2022/01/19 10:30:56;;;;;;;153.82;136.63;;;4.60;99.90;;;;;;5003556;28;20558;-79
2022/01/19 10:33:23;;;;;;;159.13;135.70;;;4.60;99.90;;;;;;4993721;28;20170;-78
2022/01/19 10:35:50;;;;;;;158.00;136.35;;;4.70;99.90;;;;;;5010591;28;20545;-77
2022/01/19 10:38:24;;;;;;;152.65;133.60;;;4.70;99.90;;;;;;5015401;28;20066;-78
2022/01/19 10:41:07;;;;;;;159.40;139.38;;;4.70;99.90;;;;;;5011697;28;20054;-79
2022/01/19 10:43:37;;;;;;;158.65;137.93;;;4.70;99.90;;;;;;5011530;28;20058;-79
2022/01/19 10:46:25;;;;;;;163.05;137.18;;;4.70;99.90;;;;;;5004410;28;20144;-76
2022/01/19 10:49:01;;;;;;;162.13;138.15;;;4.70;99.90;;;;;;5027619;28;20088;-77
2022/01/19 10:51:34;;;;;;;162.52;134.65;;;4.70;99.90;;;;;;5032207;28;20169;-77
2022/01/19 10:54:15;;;;;;;155.13;133.93;;;4.70;99.90;;;;;;5001151;28;20130;-76
2022/01/19 10:56:45;;;;;;;161.13;131.60;;;4.70;99.90;;;;;;5031542;28;20137;-77
2022/01/19 10:59:14;;;;;;;162.35;138.75;;;4.70;99.90;;;;;;4982625;28;20057;-77
2022/01/19 11:01:45;;;;;;;170.13;140.88;;;4.80;99.90;;;;;;5015828;28;20145;-80
2022/01/19 11:04:20;;;;;;;161.32;138.98;;;4.70;99.90;;;;;;5014761;28;20254;-78
2022/01/19 11:06:48;;;;;;;162.10;142.63;;;4.80;99.90;;;;;;5023245;28;20158;-76
2022/01/19 11:09:19;;;;;;;163.00;135.45;;;4.80;99.90;;;;;;5002693;28;20717;-76
2022/01/19 11:11:46;;;;;;;169.43;144.55;;;4.80;99.90;;;;;;5013603;28;20072;-78
2022/01/19 11:14:15;;;;;;;164.60;142.32;;;4.80;99.90;;;;;;5017265;28;20057;-78
2022/01/19 11:16:43;;;;;;;167.88;141.77;;;4.80;99.90;;;;;;5033409;28;20053;-76
2022/01/19 11:19:11;;;;;;;166.43;143.10;;;4.80;99.90;;;;;;5006013;28;20045;-80
2022/01/19 11:21:47;;;;;;;173.40;143.32;;;4.80;99.90;;;;;;5029170;28;20049;-81
2022/01/19 11:24:29;;;;;;;179.87;143.53;;;4.90;99.90;;;;;;5013154;28;20100;-79
2022/01/19 11:26:58;;;;;;;188.25;155.00;;;4.80;99.90;;;;;;5005982;28;20049;-79
2022/01/19 11:29:26;;;;;;;176.48;145.63;;;4.90;99.90;;;;;;5022071;28;20045;-78
2022/01/19 11:31:54;;;;;;;181.15;150.60;;;4.90;99.90;;;;;;5018970;28;20089;-78
2022/01/19 11:34:42;;;;;;;180.48;145.48;;;4.90;99.90;;;;;;5026636;28;20064;-75
2022/01/19 11:37:10;;;;;;;172.85;139.25;;;4.90;99.90;;;;;;5018182;28;20050;-76
2022/01/19 11:39:58;;;;;;;;;;;5.00;99.90;;;;;;5014008;28;20822;-78
2022/01/19 11:42:25;;;;;;;191.93;148.70;;;4.90;99.90;;;;;;5029043;28;20011;-80
2022/01/19 11:44:52;;;;;;;190.25;148.45;;;4.90;99.90;;;;;;4997327;28;20084;-77
2022/01/19 11:47:23;;;;;;;191.40;147.50;;;5.00;99.90;;;;;;4988805;28;20052;-84
2022/01/19 11:49:54;;;;;;;191.10;150.43;;;5.00;99.90;;;;;;5013676;28;20057;-79
2022/01/19 11:52:24;;;;;;;195.52;145.48;;;5.00;99.90;;;;;;4996874;28;20128;-79
2022/01/19 11:55:09;;;;;;;188.95;144.45;;;5.00;99.90;;;;;;4997246;28;20061;-82
2022/01/19 11:57:36;;;;;;;194.55;153.43;;;5.00;99.90;;;;;;5013361;28;20598;-78
2022/01/19 12:00:17;;;;;;;196.13;154.55;;;5.00;99.90;;;;;;5013020;28;20050;-79
2022/01/19 12:02:50;;;;;;;189.93;145.52;;;5.00;99.90;;;;;;4981438;28;20146;-77
2022/01/19 12:05:20;;;;;;;195.18;156.45;;;5.00;99.90;;;;;;5023747;28;20137;-77
2022/01/19 12:07:50;;;;;;;194.65;147.88;;;5.00;99.90;;;;;;5025325;28;20050;-79
2022/01/19 12:10:22;;;;;;;189.05;147.13;;;5.10;99.90;;;;;;4997308;28;20050;-81
2022/01/19 12:13:55;;;;;;;196.23;156.85;;;5.00;99.90;;;;;;5003106;28;20054;-78
2022/01/19 12:16:48;;;;;;;193.65;153.38;;;5.10;99.90;;;;;;4959598;28;20119;-75
2022/01/19 12:19:20;;;;;;;194.95;150.07;;;5.10;99.90;;;;;;4995072;28;20133;-81
2022/01/19 12:21:50;;;;;;;188.38;146.90;;;5.10;99.90;;;;;;4992095;28;20104;-78
2022/01/19 12:24:25;;;;;;;184.98;148.48;;;5.20;99.90;;;;;;5036533;28;20477;-75
2022/01/19 12:27:00;;;;;;;193.32;151.80;;;5.10;99.90;;;;;;5036678;28;20061;-79
2022/01/19 12:29:46;;;;;;;190.57;152.50;;;5.20;99.90;;;;;;5036065;28;20132;-78
2022/01/19 12:32:39;;;;;;;184.40;149.25;;;5.20;99.90;;;;;;4973932;28;20038;-82
2022/01/19 12:35:13;;;;;;;193.73;151.02;;;5.30;99.90;;;;;;5045343;28;20054;-83
2022/01/19 12:37:43;;;;;;;191.68;149.75;;;5.30;99.90;;;;;;5010933;28;20045;-79
2022/01/19 12:40:31;;;;;;;189.63;145.77;;;5.30;99.90;;;;;;5019293;28;20049;-77
2022/01/19 12:43:02;;;;;;;188.02;151.45;;;5.30;99.90;;;;;;5046054;28;20128;-76
2022/01/19 12:45:31;;;;;;;190.25;155.82;;;5.30;99.90;;;;;;5016300;28;20053;-76
2022/01/19 12:48:00;;;;;;;194.73;156.43;;;5.30;99.90;;;;;;5017935;28;20142;-76
2022/01/19 12:50:45;;;;;;;189.45;153.02;;;5.30;99.90;;;;;;5025322;28;20054;-78
2022/01/19 12:53:19;;;;;;;187.82;147.50;;;5.40;99.90;;;;;;4995947;28;20133;-76
2022/01/19 12:55:50;;;;;;;185.57;144.80;;;5.40;99.90;;;;;;5029415;28;20133;-78
2022/01/19 12:58:25;;;;;;;181.85;145.50;;;5.40;99.90;;;;;;5029887;28;20061;-76
2022/01/19 13:00:56;;;;;;;189.45;149.05;;;5.40;99.90;;;;;;5036701;28;20054;-75
2022/01/19 13:03:26;;;;;;;186.27;145.38;;;5.40;99.90;;;;;;5052432;28;20471;-76
2022/01/19 13:05:58;;;;;;;183.52;155.90;;;5.50;99.90;;;;;;5053720;28;20136;-76
2022/01/19 13:08:29;;;;;;;190.60;151.93;;;5.50;99.90;;;;;;5019855;28;20041;-76
2022/01/19 13:11:04;;;;;;;182.27;147.27;;;5.40;99.90;;;;;;5007407;28;20054;-77
2022/01/19 13:13:47;;;;;;;173.30;143.32;;;5.40;99.90;;;;;;5016095;28;20061;-79
2022/01/19 13:16:24;;;;;;;182.80;143.88;;;5.50;99.90;;;;;;5002014;28;20855;-78
2022/01/19 13:18:52;;;;;;;174.27;140.27;;;5.50;99.90;;;;;;5031476;28;20148;-81
2022/01/19 13:21:21;;;;;;;174.60;144.07;;;5.50;99.90;;;;;;5031956;28;20577;-79
2022/01/19 13:24:01;;;;;;;181.10;144.80;;;5.50;99.90;;;;;;5018680;28;20145;-80
2022/01/19 13:26:39;;;;;;;176.32;144.30;;;5.60;99.90;;;;;;5037094;28;20085;-90
2022/01/19 13:29:16;;;;;;;182.93;148.88;;;5.60;99.90;;;;;;4998546;28;20574;-80
2022/01/19 13:31:54;;;;;;;178.43;145.55;;;5.50;99.90;;;;;;5002476;28;20061;-78
2022/01/19 13:34:21;;;;;;;175.45;148.20;;;5.60;99.90;;;;;;5047981;28;20053;-78
2022/01/19 13:36:54;;;;;;;179.35;149.05;;;5.60;99.90;;;;;;5047884;28;20056;-80
2022/01/19 13:39:23;;;;;;;168.30;138.13;;;5.60;99.90;;;;;;4998876;28;20516;-79
2022/01/19 13:41:53;;;;;;;175.57;150.10;;;5.70;99.90;;;;;;5017877;28;20049;-80
2022/01/19 13:44:33;;;;;;;168.60;142.02;;;5.60;99.90;;;;;;5007666;28;20042;-81
2022/01/19 13:47:11;;;;;;;171.48;139.02;;;5.70;99.90;;;;;;4998895;28;20054;-82
2022/01/19 13:49:40;;;;;;;173.75;149.13;;;5.70;99.90;;;;;;5031241;28;20056;-79
2022/01/19 13:52:09;;;;;;;166.30;142.85;;;5.70;99.90;;;;;;5028518;28;20073;-79
2022/01/19 13:55:02;;;;;;;160.10;135.10;;;5.70;99.90;;;;;;4999514;28;20046;-80
2022/01/19 13:57:30;;;;;;;165.35;139.05;;;5.70;99.90;;;;;;5031138;28;20050;-78
2022/01/19 14:00:11;;;;;;;161.60;141.35;;;5.70;99.90;;;;;;5029859;28;20495;-77